sensor_id;sensor_type;location;lat;lon;timestamp;P1;durP1;ratioP1;P2;durP2;ratioP2
74168;SDS011;62523;53.336;83.690;2022-12-07T00:00:44;175.88;;;65.10;;
74168;SDS011;62523;53.336;83.690;2022-12-07T00:05:45;185.33;;;64.40;;
74168;SDS011;62523;53.336;83.690;2022-12-07T00:10:46;177.87;;;72.43;;
74168;SDS011;62523;53.336;83.690;2022-12-07T00:15:47;185.13;;;70.70;;
74168;SDS011;62523;53.336;83.690;2022-12-07T00:20:48;183.27;;;66.13;;
74168;SDS011;62523;53.336;83.690;2022-12-07T00:25:49;216.73;;;82.63;;
74168;SDS011;62523;53.336;83.690;2022-12-07T00:30:50;205.80;;;75.43;;
74168;SDS011;62523;53.336;83.690;2022-12-07T00:35:55;211.37;;;77.90;;
74168;SDS011;62523;53.336;83.690;2022-12-07T00:41:02;210.90;;;77.33;;
74168;SDS011;62523;53.336;83.690;2022-12-07T00:46:05;201.00;;;77.60;;
74168;SDS011;62523;53.336;83.690;2022-12-07T00:51:07;192.07;;;73.40;;
74168;SDS011;62523;53.336;83.690;2022-12-07T00:56:20;191.07;;;72.07;;
74168;SDS011;62523;53.336;83.690;2022-12-07T01:01:25;188.73;;;71.77;;
74168;SDS011;62523;53.336;83.690;2022-12-07T01:06:28;187.77;;;72.43;;
74168;SDS011;62523;53.336;83.690;2022-12-07T01:11:30;203.33;;;72.57;;
74168;SDS011;62523;53.336;83.690;2022-12-07T01:16:32;208.50;;;72.70;;
74168;SDS011;62523;53.336;83.690;2022-12-07T01:21:34;198.48;;;73.05;;
74168;SDS011;62523;53.336;83.690;2022-12-07T01:26:38;234.83;;;84.80;;
74168;SDS011;62523;53.336;83.690;2022-12-07T01:31:39;241.13;;;81.27;;
74168;SDS011;62523;53.336;83.690;2022-12-07T01:36:40;224.50;;;80.00;;
74168;SDS011;62523;53.336;83.690;2022-12-07T01:41:41;224.63;;;80.60;;
74168;SDS011;62523;53.336;83.690;2022-12-07T01:46:44;192.07;;;76.43;;
74168;SDS011;62523;53.336;83.690;2022-12-07T01:51:51;218.17;;;82.80;;
74168;SDS011;62523;53.336;83.690;2022-12-07T01:56:55;244.30;;;81.37;;
74168;SDS011;62523;53.336;83.690;2022-12-07T02:01:58;200.30;;;79.50;;
74168;SDS011;62523;53.336;83.690;2022-12-07T02:07:02;232.02;;;82.80;;
74168;SDS011;62523;53.336;83.690;2022-12-07T02:12:05;230.30;;;86.68;;
74168;SDS011;62523;53.336;83.690;2022-12-07T02:17:25;295.52;;;101.30;;
74168;SDS011;62523;53.336;83.690;2022-12-07T02:28:07;330.27;;;122.93;;
74168;SDS011;62523;53.336;83.690;2022-12-07T02:33:35;251.13;;;99.85;;
74168;SDS011;62523;53.336;83.690;2022-12-07T02:38:44;238.10;;;89.77;;
74168;SDS011;62523;53.336;83.690;2022-12-07T02:44:02;233.68;;;98.68;;
74168;SDS011;62523;53.336;83.690;2022-12-07T02:49:07;222.57;;;81.23;;
74168;SDS011;62523;53.336;83.690;2022-12-07T02:54:13;216.40;;;86.93;;
74168;SDS011;62523;53.336;83.690;2022-12-07T05:03:49;441.23;;;252.30;;
74168;SDS011;62523;53.336;83.690;2022-12-07T05:08:51;435.30;;;240.07;;
74168;SDS011;62523;53.336;83.690;2022-12-07T05:13:52;419.08;;;234.63;;
74168;SDS011;62523;53.336;83.690;2022-12-07T05:18:53;381.58;;;200.82;;
74168;SDS011;62523;53.336;83.690;2022-12-07T05:23:54;256.27;;;97.60;;
74168;SDS011;62523;53.336;83.690;2022-12-07T05:28:56;183.63;;;83.60;;
74168;SDS011;62523;53.336;83.690;2022-12-07T05:38:59;175.33;;;73.17;;
74168;SDS011;62523;53.336;83.690;2022-12-07T05:44:01;202.77;;;79.45;;
74168;SDS011;62523;53.336;83.690;2022-12-07T05:49:02;212.55;;;80.07;;
74168;SDS011;62523;53.336;83.690;2022-12-07T05:54:03;186.85;;;81.68;;
74168;SDS011;62523;53.336;83.690;2022-12-07T05:59:04;185.83;;;77.10;;
74168;SDS011;62523;53.336;83.690;2022-12-07T06:04:25;159.07;;;71.10;;
74168;SDS011;62523;53.336;83.690;2022-12-07T06:09:28;180.50;;;75.00;;
74168;SDS011;62523;53.336;83.690;2022-12-07T06:14:29;157.88;;;62.13;;
74168;SDS011;62523;53.336;83.690;2022-12-07T06:19:30;131.38;;;48.42;;
74168;SDS011;62523;53.336;83.690;2022-12-07T06:29:34;127.77;;;47.93;;
74168;SDS011;62523;53.336;83.690;2022-12-07T06:34:35;109.47;;;43.33;;
74168;SDS011;62523;53.336;83.690;2022-12-07T06:39:36;93.73;;;36.30;;
74168;SDS011;62523;53.336;83.690;2022-12-07T06:44:37;76.83;;;33.33;;
74168;SDS011;62523;53.336;83.690;2022-12-07T06:49:38;78.00;;;33.47;;
74168;SDS011;62523;53.336;83.690;2022-12-07T06:54:39;76.17;;;34.97;;
74168;SDS011;62523;53.336;83.690;2022-12-07T06:59:40;69.67;;;32.17;;
74168;SDS011;62523;53.336;83.690;2022-12-07T07:04:42;106.32;;;42.63;;
74168;SDS011;62523;53.336;83.690;2022-12-07T07:09:43;96.27;;;37.13;;
74168;SDS011;62523;53.336;83.690;2022-12-07T07:14:44;83.03;;;34.27;;
74168;SDS011;62523;53.336;83.690;2022-12-07T07:19:45;70.77;;;32.60;;
74168;SDS011;62523;53.336;83.690;2022-12-07T07:24:46;110.13;;;36.67;;
74168;SDS011;62523;53.336;83.690;2022-12-07T07:29:47;63.78;;;29.83;;
74168;SDS011;62523;53.336;83.690;2022-12-07T07:34:48;89.95;;;38.13;;
74168;SDS011;62523;53.336;83.690;2022-12-07T07:39:50;93.47;;;35.78;;
74168;SDS011;62523;53.336;83.690;2022-12-07T07:44:51;88.97;;;36.73;;
74168;SDS011;62523;53.336;83.690;2022-12-07T07:49:52;81.65;;;32.78;;
74168;SDS011;62523;53.336;83.690;2022-12-07T07:54:53;65.15;;;25.80;;
74168;SDS011;62523;53.336;83.690;2022-12-07T07:59:54;61.85;;;27.38;;
74168;SDS011;62523;53.336;83.690;2022-12-07T08:04:55;72.43;;;25.63;;
74168;SDS011;62523;53.336;83.690;2022-12-07T08:09:57;83.57;;;32.77;;
74168;SDS011;62523;53.336;83.690;2022-12-07T08:14:58;82.83;;;26.90;;
74168;SDS011;62523;53.336;83.690;2022-12-07T08:19:59;64.40;;;29.80;;
74168;SDS011;62523;53.336;83.690;2022-12-07T08:25:00;53.47;;;26.48;;
74168;SDS011;62523;53.336;83.690;2022-12-07T08:30:01;58.47;;;26.17;;
74168;SDS011;62523;53.336;83.690;2022-12-07T08:35:04;61.83;;;23.52;;
74168;SDS011;62523;53.336;83.690;2022-12-07T08:40:06;47.85;;;24.27;;
74168;SDS011;62523;53.336;83.690;2022-12-07T08:45:09;62.78;;;22.35;;
74168;SDS011;62523;53.336;83.690;2022-12-07T08:50:12;50.78;;;19.50;;
74168;SDS011;62523;53.336;83.690;2022-12-07T08:55:14;34.47;;;13.77;;
74168;SDS011;62523;53.336;83.690;2022-12-07T09:00:15;39.22;;;15.93;;
74168;SDS011;62523;53.336;83.690;2022-12-07T09:05:20;33.20;;;16.17;;
74168;SDS011;62523;53.336;83.690;2022-12-07T09:10:22;57.35;;;19.60;;
74168;SDS011;62523;53.336;83.690;2022-12-07T09:15:23;32.50;;;16.10;;
74168;SDS011;62523;53.336;83.690;2022-12-07T09:20:25;35.07;;;20.03;;
74168;SDS011;62523;53.336;83.690;2022-12-07T09:25:26;38.83;;;18.00;;
74168;SDS011;62523;53.336;83.690;2022-12-07T09:30:27;43.97;;;19.20;;
74168;SDS011;62523;53.336;83.690;2022-12-07T09:35:28;45.70;;;18.27;;
74168;SDS011;62523;53.336;83.690;2022-12-07T09:40:30;49.00;;;19.37;;
74168;SDS011;62523;53.336;83.690;2022-12-07T09:45:32;43.97;;;20.63;;
74168;SDS011;62523;53.336;83.690;2022-12-07T09:50:36;39.57;;;19.67;;
74168;SDS011;62523;53.336;83.690;2022-12-07T09:55:37;51.07;;;17.53;;
74168;SDS011;62523;53.336;83.690;2022-12-07T10:00:41;35.70;;;18.53;;
74168;SDS011;62523;53.336;83.690;2022-12-07T10:05:43;43.10;;;20.80;;
74168;SDS011;62523;53.336;83.690;2022-12-07T10:10:49;116.17;;;53.80;;
74168;SDS011;62523;53.336;83.690;2022-12-07T10:15:53;191.33;;;74.40;;
74168;SDS011;62523;53.336;83.690;2022-12-07T10:21:04;218.23;;;81.27;;
74168;SDS011;62523;53.336;83.690;2022-12-07T10:31:25;184.47;;;77.77;;
74168;SDS011;62523;53.336;83.690;2022-12-07T10:36:36;196.07;;;79.93;;
74168;SDS011;62523;53.336;83.690;2022-12-07T10:41:59;175.20;;;81.18;;
74168;SDS011;62523;53.336;83.690;2022-12-07T10:52:15;173.27;;;68.87;;
74168;SDS011;62523;53.336;83.690;2022-12-07T10:57:37;245.20;;;101.73;;
74168;SDS011;62523;53.336;83.690;2022-12-07T11:03:21;164.30;;;70.87;;
74168;SDS011;62523;53.336;83.690;2022-12-07T11:24:05;191.40;;;76.30;;
74168;SDS011;62523;53.336;83.690;2022-12-07T11:35:04;163.10;;;65.17;;
74168;SDS011;62523;53.336;83.690;2022-12-07T11:40:17;174.07;;;64.40;;
74168;SDS011;62523;53.336;83.690;2022-12-07T11:45:36;158.27;;;61.73;;
74168;SDS011;62523;53.336;83.690;2022-12-07T11:50:51;133.07;;;57.80;;
74168;SDS011;62523;53.336;83.690;2022-12-07T11:56:02;127.20;;;52.07;;
74168;SDS011;62523;53.336;83.690;2022-12-07T12:06:34;105.03;;;48.73;;
74168;SDS011;62523;53.336;83.690;2022-12-07T12:22:38;147.63;;;59.63;;
74168;SDS011;62523;53.336;83.690;2022-12-07T12:27:42;127.20;;;56.53;;
74168;SDS011;62523;53.336;83.690;2022-12-07T12:32:48;144.97;;;59.07;;
74168;SDS011;62523;53.336;83.690;2022-12-07T12:37:51;175.90;;;70.43;;
74168;SDS011;62523;53.336;83.690;2022-12-07T12:42:54;183.30;;;74.00;;
74168;SDS011;62523;53.336;83.690;2022-12-07T12:48:03;191.57;;;68.80;;
74168;SDS011;62523;53.336;83.690;2022-12-07T12:53:26;166.10;;;65.60;;
74168;SDS011;62523;53.336;83.690;2022-12-07T13:03:31;180.53;;;70.67;;
74168;SDS011;62523;53.336;83.690;2022-12-07T13:08:34;191.50;;;72.37;;
74168;SDS011;62523;53.336;83.690;2022-12-07T13:13:42;168.90;;;67.47;;
74168;SDS011;62523;53.336;83.690;2022-12-07T13:18:43;194.63;;;77.67;;
74168;SDS011;62523;53.336;83.690;2022-12-07T13:29:10;193.83;;;79.07;;
74168;SDS011;62523;53.336;83.690;2022-12-07T13:39:34;160.37;;;58.37;;
74168;SDS011;62523;53.336;83.690;2022-12-07T13:44:39;131.63;;;52.67;;
74168;SDS011;62523;53.336;83.690;2022-12-07T13:49:49;181.57;;;66.27;;
74168;SDS011;62523;53.336;83.690;2022-12-07T14:00:21;138.10;;;52.50;;
74168;SDS011;62523;53.336;83.690;2022-12-07T14:10:29;188.63;;;67.73;;
74168;SDS011;62523;53.336;83.690;2022-12-07T14:15:35;251.97;;;86.17;;
74168;SDS011;62523;53.336;83.690;2022-12-07T14:20:37;241.20;;;81.87;;
74168;SDS011;62523;53.336;83.690;2022-12-07T14:25:50;395.63;;;226.47;;
74168;SDS011;62523;53.336;83.690;2022-12-07T14:30:52;382.30;;;214.77;;
74168;SDS011;62523;53.336;83.690;2022-12-07T14:35:54;404.73;;;222.77;;
74168;SDS011;62523;53.336;83.690;2022-12-07T14:40:58;423.53;;;229.07;;
74168;SDS011;62523;53.336;83.690;2022-12-07T14:46:19;434.70;;;246.33;;
74168;SDS011;62523;53.336;83.690;2022-12-07T14:51:20;418.87;;;237.97;;
74168;SDS011;62523;53.336;83.690;2022-12-07T14:56:21;286.90;;;91.50;;
74168;SDS011;62523;53.336;83.690;2022-12-07T15:01:22;248.40;;;88.57;;
74168;SDS011;62523;53.336;83.690;2022-12-07T15:06:24;320.07;;;115.53;;
74168;SDS011;62523;53.336;83.690;2022-12-07T15:11:25;427.83;;;233.30;;
74168;SDS011;62523;53.336;83.690;2022-12-07T15:16:26;298.10;;;96.53;;
74168;SDS011;62523;53.336;83.690;2022-12-07T15:21:27;256.97;;;79.73;;
74168;SDS011;62523;53.336;83.690;2022-12-07T15:26:29;274.00;;;96.10;;
74168;SDS011;62523;53.336;83.690;2022-12-07T15:31:30;261.08;;;81.45;;
74168;SDS011;62523;53.336;83.690;2022-12-07T15:36:32;241.87;;;86.90;;
74168;SDS011;62523;53.336;83.690;2022-12-07T15:41:34;266.98;;;94.95;;
74168;SDS011;62523;53.336;83.690;2022-12-07T15:51:38;264.55;;;103.10;;
74168;SDS011;62523;53.336;83.690;2022-12-07T15:56:40;290.42;;;116.10;;
74168;SDS011;62523;53.336;83.690;2022-12-07T16:01:41;261.13;;;97.80;;
74168;SDS011;62523;53.336;83.690;2022-12-07T16:06:42;224.33;;;88.67;;
74168;SDS011;62523;53.336;83.690;2022-12-07T16:11:44;258.17;;;95.93;;
74168;SDS011;62523;53.336;83.690;2022-12-07T16:16:46;238.87;;;90.20;;
74168;SDS011;62523;53.336;83.690;2022-12-07T16:26:49;230.60;;;89.13;;
74168;SDS011;62523;53.336;83.690;2022-12-07T16:31:50;254.17;;;94.07;;
74168;SDS011;62523;53.336;83.690;2022-12-07T16:36:52;219.88;;;88.05;;
74168;SDS011;62523;53.336;83.690;2022-12-07T16:41:53;201.87;;;86.17;;
74168;SDS011;62523;53.336;83.690;2022-12-07T16:46:54;203.73;;;83.60;;
74168;SDS011;62523;53.336;83.690;2022-12-07T16:51:55;212.13;;;78.97;;
74168;SDS011;62523;53.336;83.690;2022-12-07T17:01:58;227.10;;;81.23;;
74168;SDS011;62523;53.336;83.690;2022-12-07T17:06:59;216.30;;;85.10;;
74168;SDS011;62523;53.336;83.690;2022-12-07T17:12:01;225.27;;;84.93;;
74168;SDS011;62523;53.336;83.690;2022-12-07T17:17:03;207.98;;;81.63;;
74168;SDS011;62523;53.336;83.690;2022-12-07T17:22:05;198.57;;;76.47;;
74168;SDS011;62523;53.336;83.690;2022-12-07T17:27:06;210.82;;;75.78;;
74168;SDS011;62523;53.336;83.690;2022-12-07T17:32:07;170.37;;;70.90;;
74168;SDS011;62523;53.336;83.690;2022-12-07T17:37:08;203.30;;;75.40;;
74168;SDS011;62523;53.336;83.690;2022-12-07T17:42:09;176.83;;;71.27;;
74168;SDS011;62523;53.336;83.690;2022-12-07T17:47:29;167.83;;;60.07;;
74168;SDS011;62523;53.336;83.690;2022-12-07T17:52:30;177.48;;;64.20;;
74168;SDS011;62523;53.336;83.690;2022-12-07T17:57:50;168.93;;;66.73;;
74168;SDS011;62523;53.336;83.690;2022-12-07T18:02:51;143.80;;;54.17;;
74168;SDS011;62523;53.336;83.690;2022-12-07T18:07:53;162.50;;;65.93;;
74168;SDS011;62523;53.336;83.690;2022-12-07T18:12:54;169.40;;;71.25;;
74168;SDS011;62523;53.336;83.690;2022-12-07T18:18:16;145.37;;;58.67;;
74168;SDS011;62523;53.336;83.690;2022-12-07T18:23:17;143.17;;;55.33;;
74168;SDS011;62523;53.336;83.690;2022-12-07T18:28:20;136.13;;;55.20;;
74168;SDS011;62523;53.336;83.690;2022-12-07T18:33:21;142.48;;;50.25;;
74168;SDS011;62523;53.336;83.690;2022-12-07T18:38:23;105.47;;;44.38;;
74168;SDS011;62523;53.336;83.690;2022-12-07T18:43:24;130.57;;;50.53;;
74168;SDS011;62523;53.336;83.690;2022-12-07T18:48:26;113.45;;;50.78;;
74168;SDS011;62523;53.336;83.690;2022-12-07T18:53:27;125.83;;;45.00;;
74168;SDS011;62523;53.336;83.690;2022-12-07T18:58:29;123.93;;;49.63;;
74168;SDS011;62523;53.336;83.690;2022-12-07T19:03:31;109.35;;;44.33;;
74168;SDS011;62523;53.336;83.690;2022-12-07T19:08:32;123.63;;;47.30;;
74168;SDS011;62523;53.336;83.690;2022-12-07T19:13:34;129.18;;;51.65;;
74168;SDS011;62523;53.336;83.690;2022-12-07T19:18:35;133.60;;;52.17;;
74168;SDS011;62523;53.336;83.690;2022-12-07T19:23:36;143.47;;;58.17;;
74168;SDS011;62523;53.336;83.690;2022-12-07T19:28:38;146.07;;;57.63;;
74168;SDS011;62523;53.336;83.690;2022-12-07T19:33:39;150.38;;;55.08;;
74168;SDS011;62523;53.336;83.690;2022-12-07T19:38:41;127.53;;;54.53;;
74168;SDS011;62523;53.336;83.690;2022-12-07T19:43:42;148.37;;;62.47;;
74168;SDS011;62523;53.336;83.690;2022-12-07T19:48:43;137.00;;;58.93;;
74168;SDS011;62523;53.336;83.690;2022-12-07T19:53:44;141.30;;;54.20;;
74168;SDS011;62523;53.336;83.690;2022-12-07T19:58:45;141.90;;;54.57;;
74168;SDS011;62523;53.336;83.690;2022-12-07T20:03:47;141.55;;;60.13;;
74168;SDS011;62523;53.336;83.690;2022-12-07T20:08:48;164.97;;;64.93;;
74168;SDS011;62523;53.336;83.690;2022-12-07T20:13:50;180.73;;;64.37;;
74168;SDS011;62523;53.336;83.690;2022-12-07T20:23:53;189.57;;;72.63;;
74168;SDS011;62523;53.336;83.690;2022-12-07T20:28:55;164.57;;;62.37;;
74168;SDS011;62523;53.336;83.690;2022-12-07T20:33:56;285.45;;;171.65;;
74168;SDS011;62523;53.336;83.690;2022-12-07T20:38:59;169.03;;;65.50;;
74168;SDS011;62523;53.336;83.690;2022-12-07T20:44:01;180.73;;;61.53;;
74168;SDS011;62523;53.336;83.690;2022-12-07T20:49:03;152.80;;;56.15;;
74168;SDS011;62523;53.336;83.690;2022-12-07T20:54:04;156.23;;;59.27;;
74168;SDS011;62523;53.336;83.690;2022-12-07T20:59:06;156.25;;;58.53;;
74168;SDS011;62523;53.336;83.690;2022-12-07T21:04:12;147.37;;;60.03;;
74168;SDS011;62523;53.336;83.690;2022-12-07T21:09:15;146.60;;;55.03;;
74168;SDS011;62523;53.336;83.690;2022-12-07T21:14:16;247.30;;;146.63;;
74168;SDS011;62523;53.336;83.690;2022-12-07T21:19:17;132.70;;;57.10;;
74168;SDS011;62523;53.336;83.690;2022-12-07T21:24:18;136.13;;;55.30;;
74168;SDS011;62523;53.336;83.690;2022-12-07T21:29:19;132.50;;;49.87;;
74168;SDS011;62523;53.336;83.690;2022-12-07T21:34:20;148.40;;;49.27;;
74168;SDS011;62523;53.336;83.690;2022-12-07T21:39:21;124.73;;;53.23;;
74168;SDS011;62523;53.336;83.690;2022-12-07T21:44:22;146.47;;;57.00;;
74168;SDS011;62523;53.336;83.690;2022-12-07T21:49:24;145.87;;;56.20;;
74168;SDS011;62523;53.336;83.690;2022-12-07T21:54:25;155.23;;;58.80;;
74168;SDS011;62523;53.336;83.690;2022-12-07T21:59:26;162.30;;;48.63;;
74168;SDS011;62523;53.336;83.690;2022-12-07T22:04:27;147.47;;;56.70;;
74168;SDS011;62523;53.336;83.690;2022-12-07T22:09:53;138.57;;;50.60;;
74168;SDS011;62523;53.336;83.690;2022-12-07T22:14:54;134.87;;;50.30;;
74168;SDS011;62523;53.336;83.690;2022-12-07T22:20:09;150.73;;;50.83;;
74168;SDS011;62523;53.336;83.690;2022-12-07T22:25:11;128.10;;;49.53;;
74168;SDS011;62523;53.336;83.690;2022-12-07T22:30:13;119.33;;;42.27;;
74168;SDS011;62523;53.336;83.690;2022-12-07T22:35:15;149.35;;;45.40;;
74168;SDS011;62523;53.336;83.690;2022-12-07T22:40:16;167.60;;;55.83;;
74168;SDS011;62523;53.336;83.690;2022-12-07T22:50:19;122.67;;;46.87;;
74168;SDS011;62523;53.336;83.690;2022-12-07T22:55:20;147.97;;;50.47;;
74168;SDS011;62523;53.336;83.690;2022-12-07T23:00:21;141.70;;;49.07;;
74168;SDS011;62523;53.336;83.690;2022-12-07T23:05:22;147.83;;;51.80;;
74168;SDS011;62523;53.336;83.690;2022-12-07T23:10:23;151.33;;;56.37;;
74168;SDS011;62523;53.336;83.690;2022-12-07T23:15:25;135.77;;;51.05;;
74168;SDS011;62523;53.336;83.690;2022-12-07T23:20:26;92.73;;;38.83;;
74168;SDS011;62523;53.336;83.690;2022-12-07T23:25:27;125.67;;;43.57;;
74168;SDS011;62523;53.336;83.690;2022-12-07T23:30:28;139.13;;;47.63;;
74168;SDS011;62523;53.336;83.690;2022-12-07T23:35:29;111.47;;;44.37;;
74168;SDS011;62523;53.336;83.690;2022-12-07T23:40:30;120.37;;;48.80;;
74168;SDS011;62523;53.336;83.690;2022-12-07T23:45:31;158.73;;;54.83;;
74168;SDS011;62523;53.336;83.690;2022-12-07T23:50:32;132.07;;;49.93;;
74168;SDS011;62523;53.336;83.690;2022-12-07T23:55:33;155.13;;;57.30;;
